sensor_id;sensor_type;location;lat;lon;timestamp;P1;durP1;ratioP1;P2;durP2;ratioP2
75854;SDS011;64502;59.976;30.316;2023-03-23T00:01:02;11.60;;;5.75;;
75854;SDS011;64502;59.976;30.316;2023-03-23T00:03:29;11.13;;;4.95;;
75854;SDS011;64502;59.976;30.316;2023-03-23T00:05:56;9.40;;;4.93;;
75854;SDS011;64502;59.976;30.316;2023-03-23T00:08:27;10.38;;;5.03;;
75854;SDS011;64502;59.976;30.316;2023-03-23T00:10:53;10.88;;;4.65;;
75854;SDS011;64502;59.976;30.316;2023-03-23T00:13:25;11.93;;;4.97;;
75854;SDS011;64502;59.976;30.316;2023-03-23T00:18:17;9.63;;;4.55;;
75854;SDS011;64502;59.976;30.316;2023-03-23T00:20:48;9.77;;;5.68;;
75854;SDS011;64502;59.976;30.316;2023-03-23T00:23:15;13.00;;;5.03;;
75854;SDS011;64502;59.976;30.316;2023-03-23T00:28:14;9.57;;;5.50;;
75854;SDS011;64502;59.976;30.316;2023-03-23T00:30:41;12.60;;;5.45;;
75854;SDS011;64502;59.976;30.316;2023-03-23T00:33:07;9.73;;;5.45;;
75854;SDS011;64502;59.976;30.316;2023-03-23T00:35:33;9.80;;;4.97;;
75854;SDS011;64502;59.976;30.316;2023-03-23T00:38:00;10.82;;;5.40;;
75854;SDS011;64502;59.976;30.316;2023-03-23T00:40:27;15.93;;;5.85;;
75854;SDS011;64502;59.976;30.316;2023-03-23T00:42:52;11.48;;;4.88;;
75854;SDS011;64502;59.976;30.316;2023-03-23T00:45:18;9.55;;;4.78;;
75854;SDS011;64502;59.976;30.316;2023-03-23T00:47:43;11.85;;;5.68;;
75854;SDS011;64502;59.976;30.316;2023-03-23T00:50:11;10.35;;;5.75;;
75854;SDS011;64502;59.976;30.316;2023-03-23T00:52:39;11.43;;;5.97;;
75854;SDS011;64502;59.976;30.316;2023-03-23T00:55:06;10.50;;;5.28;;
75854;SDS011;64502;59.976;30.316;2023-03-23T00:57:31;9.00;;;4.70;;
75854;SDS011;64502;59.976;30.316;2023-03-23T00:59:57;10.00;;;4.90;;
75854;SDS011;64502;59.976;30.316;2023-03-23T01:02:23;11.07;;;5.38;;
75854;SDS011;64502;59.976;30.316;2023-03-23T01:04:49;10.20;;;4.43;;
75854;SDS011;64502;59.976;30.316;2023-03-23T01:07:17;10.50;;;4.40;;
75854;SDS011;64502;59.976;30.316;2023-03-23T01:09:45;9.40;;;4.45;;
75854;SDS011;64502;59.976;30.316;2023-03-23T01:12:12;10.68;;;5.32;;
75854;SDS011;64502;59.976;30.316;2023-03-23T01:14:37;8.13;;;4.88;;
75854;SDS011;64502;59.976;30.316;2023-03-23T01:17:03;7.55;;;4.45;;
75854;SDS011;64502;59.976;30.316;2023-03-23T01:19:28;11.43;;;4.35;;
75854;SDS011;64502;59.976;30.316;2023-03-23T01:21:53;9.07;;;4.30;;
75854;SDS011;64502;59.976;30.316;2023-03-23T01:24:19;9.80;;;4.50;;
75854;SDS011;64502;59.976;30.316;2023-03-23T01:26:44;9.18;;;4.43;;
75854;SDS011;64502;59.976;30.316;2023-03-23T01:29:10;9.68;;;4.75;;
75854;SDS011;64502;59.976;30.316;2023-03-23T01:31:36;10.00;;;3.45;;
75854;SDS011;64502;59.976;30.316;2023-03-23T01:34:02;10.35;;;5.55;;
75854;SDS011;64502;59.976;30.316;2023-03-23T01:36:28;8.88;;;4.35;;
75854;SDS011;64502;59.976;30.316;2023-03-23T01:38:58;8.25;;;4.72;;
75854;SDS011;64502;59.976;30.316;2023-03-23T01:41:25;8.70;;;3.97;;
75854;SDS011;64502;59.976;30.316;2023-03-23T01:44:05;9.30;;;4.57;;
75854;SDS011;64502;59.976;30.316;2023-03-23T01:46:43;8.35;;;4.45;;
75854;SDS011;64502;59.976;30.316;2023-03-23T01:49:19;8.95;;;4.65;;
75854;SDS011;64502;59.976;30.316;2023-03-23T01:51:50;9.25;;;6.18;;
75854;SDS011;64502;59.976;30.316;2023-03-23T01:54:21;7.65;;;4.80;;
75854;SDS011;64502;59.976;30.316;2023-03-23T01:56:55;7.05;;;4.00;;
75854;SDS011;64502;59.976;30.316;2023-03-23T01:59:24;7.85;;;3.47;;
75854;SDS011;64502;59.976;30.316;2023-03-23T02:01:52;7.35;;;3.50;;
75854;SDS011;64502;59.976;30.316;2023-03-23T02:04:19;6.68;;;4.05;;
75854;SDS011;64502;59.976;30.316;2023-03-23T02:06:46;9.77;;;4.63;;
75854;SDS011;64502;59.976;30.316;2023-03-23T02:09:12;7.80;;;4.00;;
75854;SDS011;64502;59.976;30.316;2023-03-23T02:11:42;10.13;;;4.60;;
75854;SDS011;64502;59.976;30.316;2023-03-23T02:14:07;9.60;;;4.00;;
75854;SDS011;64502;59.976;30.316;2023-03-23T02:29:07;7.60;;;4.15;;
75854;SDS011;64502;59.976;30.316;2023-03-23T02:33:49;7.13;;;3.42;;
75854;SDS011;64502;59.976;30.316;2023-03-23T02:36:44;10.25;;;5.65;;
75854;SDS011;64502;59.976;30.316;2023-03-23T02:42:07;8.57;;;4.82;;
75854;SDS011;64502;59.976;30.316;2023-03-23T02:44:35;9.02;;;4.85;;
75854;SDS011;64502;59.976;30.316;2023-03-23T02:47:05;8.45;;;3.78;;
75854;SDS011;64502;59.976;30.316;2023-03-23T02:49:36;10.68;;;5.05;;
75854;SDS011;64502;59.976;30.316;2023-03-23T02:52:10;7.57;;;4.05;;
75854;SDS011;64502;59.976;30.316;2023-03-23T02:54:41;8.02;;;3.80;;
75854;SDS011;64502;59.976;30.316;2023-03-23T02:57:09;11.27;;;4.60;;
75854;SDS011;64502;59.976;30.316;2023-03-23T02:59:35;8.25;;;4.38;;
75854;SDS011;64502;59.976;30.316;2023-03-23T03:02:14;8.70;;;5.18;;
75854;SDS011;64502;59.976;30.316;2023-03-23T03:04:48;8.30;;;4.10;;
75854;SDS011;64502;59.976;30.316;2023-03-23T03:10:24;9.00;;;4.18;;
75854;SDS011;64502;59.976;30.316;2023-03-23T03:13:03;8.57;;;4.30;;
75854;SDS011;64502;59.976;30.316;2023-03-23T03:15:36;7.90;;;3.65;;
75854;SDS011;64502;59.976;30.316;2023-03-23T03:18:15;6.28;;;2.88;;
75854;SDS011;64502;59.976;30.316;2023-03-23T03:20:49;7.80;;;3.67;;
75854;SDS011;64502;59.976;30.316;2023-03-23T03:23:18;6.70;;;3.25;;
75854;SDS011;64502;59.976;30.316;2023-03-23T03:25:46;6.38;;;3.67;;
75854;SDS011;64502;59.976;30.316;2023-03-23T03:28:16;6.18;;;3.78;;
75854;SDS011;64502;59.976;30.316;2023-03-23T03:30:46;7.80;;;3.78;;
75854;SDS011;64502;59.976;30.316;2023-03-23T03:33:16;9.13;;;4.93;;
75854;SDS011;64502;59.976;30.316;2023-03-23T03:35:45;5.68;;;3.45;;
75854;SDS011;64502;59.976;30.316;2023-03-23T03:38:11;6.97;;;3.63;;
75854;SDS011;64502;59.976;30.316;2023-03-23T03:40:37;6.07;;;3.42;;
75854;SDS011;64502;59.976;30.316;2023-03-23T03:43:03;7.45;;;4.03;;
75854;SDS011;64502;59.976;30.316;2023-03-23T03:45:29;5.28;;;3.05;;
75854;SDS011;64502;59.976;30.316;2023-03-23T03:47:55;6.55;;;3.13;;
75854;SDS011;64502;59.976;30.316;2023-03-23T03:50:21;5.25;;;2.65;;
75854;SDS011;64502;59.976;30.316;2023-03-23T03:52:46;6.15;;;3.05;;
75854;SDS011;64502;59.976;30.316;2023-03-23T03:55:12;3.90;;;1.95;;
75854;SDS011;64502;59.976;30.316;2023-03-23T03:57:37;6.72;;;3.08;;
75854;SDS011;64502;59.976;30.316;2023-03-23T04:00:04;6.18;;;2.83;;
75854;SDS011;64502;59.976;30.316;2023-03-23T04:02:49;6.35;;;3.92;;
75854;SDS011;64502;59.976;30.316;2023-03-23T04:05:20;5.82;;;2.72;;
75854;SDS011;64502;59.976;30.316;2023-03-23T04:07:46;5.85;;;3.05;;
75854;SDS011;64502;59.976;30.316;2023-03-23T04:10:14;7.05;;;3.90;;
75854;SDS011;64502;59.976;30.316;2023-03-23T04:12:40;6.10;;;2.92;;
75854;SDS011;64502;59.976;30.316;2023-03-23T04:15:06;4.55;;;2.88;;
75854;SDS011;64502;59.976;30.316;2023-03-23T04:17:32;4.75;;;3.00;;
75854;SDS011;64502;59.976;30.316;2023-03-23T04:19:58;5.10;;;3.35;;
75854;SDS011;64502;59.976;30.316;2023-03-23T04:22:31;6.45;;;3.10;;
75854;SDS011;64502;59.976;30.316;2023-03-23T04:24:58;6.25;;;3.63;;
75854;SDS011;64502;59.976;30.316;2023-03-23T04:27:26;5.75;;;3.33;;
75854;SDS011;64502;59.976;30.316;2023-03-23T04:29:53;5.93;;;3.30;;
75854;SDS011;64502;59.976;30.316;2023-03-23T04:32:27;6.82;;;3.08;;
75854;SDS011;64502;59.976;30.316;2023-03-23T04:34:54;5.05;;;2.30;;
75854;SDS011;64502;59.976;30.316;2023-03-23T04:37:21;5.63;;;3.17;;
75854;SDS011;64502;59.976;30.316;2023-03-23T04:39:50;7.85;;;3.15;;
75854;SDS011;64502;59.976;30.316;2023-03-23T04:42:26;6.80;;;2.78;;
75854;SDS011;64502;59.976;30.316;2023-03-23T04:44:59;6.10;;;2.25;;
75854;SDS011;64502;59.976;30.316;2023-03-23T04:47:25;6.00;;;3.00;;
75854;SDS011;64502;59.976;30.316;2023-03-23T04:49:57;6.45;;;3.72;;
75854;SDS011;64502;59.976;30.316;2023-03-23T04:52:24;5.97;;;2.95;;
75854;SDS011;64502;59.976;30.316;2023-03-23T04:54:50;7.57;;;3.95;;
75854;SDS011;64502;59.976;30.316;2023-03-23T04:57:16;5.63;;;3.08;;
75854;SDS011;64502;59.976;30.316;2023-03-23T04:59:42;6.90;;;3.53;;
75854;SDS011;64502;59.976;30.316;2023-03-23T05:02:09;6.15;;;3.50;;
75854;SDS011;64502;59.976;30.316;2023-03-23T05:04:38;6.03;;;3.22;;
75854;SDS011;64502;59.976;30.316;2023-03-23T05:07:05;6.13;;;2.80;;
75854;SDS011;64502;59.976;30.316;2023-03-23T05:09:31;7.05;;;3.88;;
75854;SDS011;64502;59.976;30.316;2023-03-23T05:11:57;6.57;;;3.50;;
75854;SDS011;64502;59.976;30.316;2023-03-23T05:14:24;6.32;;;3.17;;
75854;SDS011;64502;59.976;30.316;2023-03-23T05:16:50;6.20;;;3.05;;
75854;SDS011;64502;59.976;30.316;2023-03-23T05:19:17;8.15;;;4.65;;
75854;SDS011;64502;59.976;30.316;2023-03-23T05:21:42;10.38;;;3.90;;
75854;SDS011;64502;59.976;30.316;2023-03-23T05:24:09;10.20;;;4.57;;
75854;SDS011;64502;59.976;30.316;2023-03-23T05:26:35;8.15;;;3.78;;
75854;SDS011;64502;59.976;30.316;2023-03-23T05:29:00;8.15;;;4.32;;
75854;SDS011;64502;59.976;30.316;2023-03-23T05:31:26;10.27;;;4.82;;
75854;SDS011;64502;59.976;30.316;2023-03-23T05:33:52;7.35;;;3.95;;
75854;SDS011;64502;59.976;30.316;2023-03-23T05:36:17;9.95;;;4.97;;
75854;SDS011;64502;59.976;30.316;2023-03-23T05:38:43;9.75;;;5.10;;
75854;SDS011;64502;59.976;30.316;2023-03-23T05:41:12;10.57;;;4.75;;
75854;SDS011;64502;59.976;30.316;2023-03-23T05:43:39;9.43;;;3.95;;
75854;SDS011;64502;59.976;30.316;2023-03-23T05:46:05;8.85;;;3.88;;
75854;SDS011;64502;59.976;30.316;2023-03-23T05:48:30;8.27;;;4.43;;
75854;SDS011;64502;59.976;30.316;2023-03-23T05:50:56;7.35;;;3.60;;
75854;SDS011;64502;59.976;30.316;2023-03-23T05:53:21;7.10;;;3.70;;
75854;SDS011;64502;59.976;30.316;2023-03-23T05:55:48;9.07;;;3.55;;
75854;SDS011;64502;59.976;30.316;2023-03-23T05:58:13;8.85;;;4.28;;
75854;SDS011;64502;59.976;30.316;2023-03-23T06:00:39;8.63;;;3.58;;
75854;SDS011;64502;59.976;30.316;2023-03-23T06:03:05;10.55;;;4.10;;
75854;SDS011;64502;59.976;30.316;2023-03-23T06:05:30;9.90;;;4.03;;
75854;SDS011;64502;59.976;30.316;2023-03-23T06:07:58;8.30;;;3.55;;
75854;SDS011;64502;59.976;30.316;2023-03-23T06:10:24;7.50;;;3.50;;
75854;SDS011;64502;59.976;30.316;2023-03-23T06:12:50;8.35;;;3.72;;
75854;SDS011;64502;59.976;30.316;2023-03-23T06:15:16;7.72;;;3.70;;
75854;SDS011;64502;59.976;30.316;2023-03-23T06:17:42;6.68;;;2.80;;
75854;SDS011;64502;59.976;30.316;2023-03-23T06:20:08;7.72;;;3.70;;
75854;SDS011;64502;59.976;30.316;2023-03-23T06:22:39;6.55;;;3.28;;
75854;SDS011;64502;59.976;30.316;2023-03-23T06:25:08;6.53;;;2.92;;
75854;SDS011;64502;59.976;30.316;2023-03-23T06:27:36;6.28;;;3.20;;
75854;SDS011;64502;59.976;30.316;2023-03-23T06:30:03;5.60;;;2.88;;
75854;SDS011;64502;59.976;30.316;2023-03-23T06:32:30;7.05;;;3.08;;
75854;SDS011;64502;59.976;30.316;2023-03-23T06:34:57;6.25;;;2.83;;
75854;SDS011;64502;59.976;30.316;2023-03-23T06:37:22;4.85;;;2.83;;
75854;SDS011;64502;59.976;30.316;2023-03-23T06:39:49;5.45;;;2.33;;
75854;SDS011;64502;59.976;30.316;2023-03-23T06:42:16;5.15;;;2.50;;
75854;SDS011;64502;59.976;30.316;2023-03-23T06:44:43;5.53;;;2.25;;
75854;SDS011;64502;59.976;30.316;2023-03-23T06:47:08;6.40;;;3.20;;
75854;SDS011;64502;59.976;30.316;2023-03-23T06:49:34;5.72;;;2.40;;
75854;SDS011;64502;59.976;30.316;2023-03-23T06:52:00;5.60;;;3.35;;
75854;SDS011;64502;59.976;30.316;2023-03-23T06:54:26;6.22;;;2.60;;
75854;SDS011;64502;59.976;30.316;2023-03-23T06:56:52;4.90;;;2.05;;
75854;SDS011;64502;59.976;30.316;2023-03-23T06:59:18;5.15;;;2.70;;
75854;SDS011;64502;59.976;30.316;2023-03-23T07:01:44;8.38;;;2.58;;
75854;SDS011;64502;59.976;30.316;2023-03-23T07:04:11;4.82;;;2.30;;
75854;SDS011;64502;59.976;30.316;2023-03-23T07:06:37;8.70;;;3.03;;
75854;SDS011;64502;59.976;30.316;2023-03-23T07:09:03;7.68;;;2.55;;
75854;SDS011;64502;59.976;30.316;2023-03-23T07:11:29;8.52;;;3.42;;
75854;SDS011;64502;59.976;30.316;2023-03-23T07:13:54;7.68;;;2.22;;
75854;SDS011;64502;59.976;30.316;2023-03-23T07:16:20;4.85;;;2.03;;
75854;SDS011;64502;59.976;30.316;2023-03-23T07:18:46;5.28;;;2.65;;
75854;SDS011;64502;59.976;30.316;2023-03-23T07:21:11;4.45;;;1.90;;
75854;SDS011;64502;59.976;30.316;2023-03-23T07:23:37;6.00;;;2.15;;
75854;SDS011;64502;59.976;30.316;2023-03-23T07:26:02;8.80;;;2.08;;
75854;SDS011;64502;59.976;30.316;2023-03-23T07:28:28;5.70;;;2.53;;
75854;SDS011;64502;59.976;30.316;2023-03-23T07:30:55;6.22;;;1.75;;
75854;SDS011;64502;59.976;30.316;2023-03-23T07:33:21;5.07;;;2.60;;
75854;SDS011;64502;59.976;30.316;2023-03-23T07:35:47;4.00;;;2.05;;
75854;SDS011;64502;59.976;30.316;2023-03-23T07:38:13;4.68;;;2.20;;
75854;SDS011;64502;59.976;30.316;2023-03-23T07:40:39;2.63;;;1.02;;
75854;SDS011;64502;59.976;30.316;2023-03-23T07:43:05;3.40;;;2.15;;
75854;SDS011;64502;59.976;30.316;2023-03-23T07:45:31;4.53;;;2.13;;
75854;SDS011;64502;59.976;30.316;2023-03-23T07:47:56;3.45;;;1.90;;
75854;SDS011;64502;59.976;30.316;2023-03-23T07:50:22;2.92;;;1.75;;
75854;SDS011;64502;59.976;30.316;2023-03-23T07:52:50;3.63;;;1.50;;
75854;SDS011;64502;59.976;30.316;2023-03-23T07:55:16;4.10;;;1.23;;
75854;SDS011;64502;59.976;30.316;2023-03-23T07:57:45;2.25;;;1.20;;
75854;SDS011;64502;59.976;30.316;2023-03-23T08:00:12;5.05;;;1.13;;
75854;SDS011;64502;59.976;30.316;2023-03-23T08:02:48;2.83;;;1.50;;
75854;SDS011;64502;59.976;30.316;2023-03-23T08:05:15;2.35;;;1.15;;
75854;SDS011;64502;59.976;30.316;2023-03-23T08:07:41;2.53;;;1.35;;
75854;SDS011;64502;59.976;30.316;2023-03-23T08:10:08;2.88;;;1.48;;
75854;SDS011;64502;59.976;30.316;2023-03-23T08:12:38;3.00;;;1.67;;
75854;SDS011;64502;59.976;30.316;2023-03-23T08:15:06;2.95;;;1.73;;
75854;SDS011;64502;59.976;30.316;2023-03-23T08:17:33;2.80;;;1.30;;
75854;SDS011;64502;59.976;30.316;2023-03-23T08:19:59;1.85;;;0.90;;
75854;SDS011;64502;59.976;30.316;2023-03-23T08:22:26;2.83;;;1.05;;
75854;SDS011;64502;59.976;30.316;2023-03-23T08:24:54;2.65;;;1.63;;
75854;SDS011;64502;59.976;30.316;2023-03-23T08:27:19;3.30;;;0.80;;
75854;SDS011;64502;59.976;30.316;2023-03-23T08:29:45;3.78;;;1.40;;
75854;SDS011;64502;59.976;30.316;2023-03-23T08:32:12;2.53;;;0.88;;
75854;SDS011;64502;59.976;30.316;2023-03-23T08:34:37;3.08;;;1.05;;
75854;SDS011;64502;59.976;30.316;2023-03-23T08:37:03;1.75;;;0.70;;
75854;SDS011;64502;59.976;30.316;2023-03-23T08:39:30;1.83;;;0.80;;
75854;SDS011;64502;59.976;30.316;2023-03-23T08:41:56;2.85;;;1.00;;
75854;SDS011;64502;59.976;30.316;2023-03-23T08:44:22;2.75;;;0.93;;
75854;SDS011;64502;59.976;30.316;2023-03-23T08:46:47;3.00;;;1.35;;
75854;SDS011;64502;59.976;30.316;2023-03-23T08:49:15;2.88;;;1.27;;
75854;SDS011;64502;59.976;30.316;2023-03-23T08:51:40;2.67;;;1.42;;
75854;SDS011;64502;59.976;30.316;2023-03-23T08:54:07;3.85;;;0.80;;
75854;SDS011;64502;59.976;30.316;2023-03-23T08:56:32;2.75;;;1.60;;
75854;SDS011;64502;59.976;30.316;2023-03-23T08:58:58;2.47;;;1.10;;
75854;SDS011;64502;59.976;30.316;2023-03-23T09:01:25;3.20;;;1.70;;
75854;SDS011;64502;59.976;30.316;2023-03-23T09:03:51;4.03;;;1.45;;
75854;SDS011;64502;59.976;30.316;2023-03-23T09:06:17;5.05;;;1.27;;
75854;SDS011;64502;59.976;30.316;2023-03-23T09:08:43;3.67;;;1.02;;
75854;SDS011;64502;59.976;30.316;2023-03-23T09:11:09;2.55;;;1.52;;
75854;SDS011;64502;59.976;30.316;2023-03-23T09:13:35;2.00;;;0.90;;
75854;SDS011;64502;59.976;30.316;2023-03-23T09:16:04;7.00;;;1.92;;
75854;SDS011;64502;59.976;30.316;2023-03-23T09:18:30;3.78;;;1.40;;
75854;SDS011;64502;59.976;30.316;2023-03-23T09:20:57;3.88;;;1.10;;
75854;SDS011;64502;59.976;30.316;2023-03-23T09:23:24;2.90;;;1.55;;
75854;SDS011;64502;59.976;30.316;2023-03-23T09:25:50;3.72;;;1.30;;
75854;SDS011;64502;59.976;30.316;2023-03-23T09:28:17;3.72;;;2.35;;
75854;SDS011;64502;59.976;30.316;2023-03-23T09:30:43;4.90;;;2.75;;
75854;SDS011;64502;59.976;30.316;2023-03-23T09:33:09;3.83;;;1.48;;
75854;SDS011;64502;59.976;30.316;2023-03-23T09:35:35;5.05;;;2.03;;
75854;SDS011;64502;59.976;30.316;2023-03-23T09:38:03;3.20;;;1.45;;
75854;SDS011;64502;59.976;30.316;2023-03-23T09:40:32;4.07;;;2.30;;
75854;SDS011;64502;59.976;30.316;2023-03-23T09:48:35;5.03;;;1.98;;
75854;SDS011;64502;59.976;30.316;2023-03-23T09:51:18;6.70;;;1.45;;
75854;SDS011;64502;59.976;30.316;2023-03-23T09:53:54;4.60;;;1.77;;
75854;SDS011;64502;59.976;30.316;2023-03-23T09:56:23;6.38;;;2.20;;
75854;SDS011;64502;59.976;30.316;2023-03-23T09:58:57;5.20;;;2.17;;
75854;SDS011;64502;59.976;30.316;2023-03-23T10:07:13;5.88;;;1.67;;
75854;SDS011;64502;59.976;30.316;2023-03-23T10:09:44;3.63;;;1.40;;
75854;SDS011;64502;59.976;30.316;2023-03-23T10:12:18;4.13;;;1.65;;
75854;SDS011;64502;59.976;30.316;2023-03-23T10:17:40;4.22;;;1.58;;
75854;SDS011;64502;59.976;30.316;2023-03-23T10:25:36;2.88;;;1.50;;
75854;SDS011;64502;59.976;30.316;2023-03-23T10:28:12;3.92;;;1.67;;
75854;SDS011;64502;59.976;30.316;2023-03-23T10:30:44;3.40;;;1.73;;
75854;SDS011;64502;59.976;30.316;2023-03-23T10:36:14;3.38;;;1.55;;
75854;SDS011;64502;59.976;30.316;2023-03-23T10:38:44;4.03;;;1.13;;
75854;SDS011;64502;59.976;30.316;2023-03-23T10:41:11;6.05;;;1.33;;
75854;SDS011;64502;59.976;30.316;2023-03-23T10:43:38;5.45;;;1.45;;
75854;SDS011;64502;59.976;30.316;2023-03-23T10:48:58;3.40;;;1.00;;
75854;SDS011;64502;59.976;30.316;2023-03-23T10:51:32;4.20;;;1.25;;
75854;SDS011;64502;59.976;30.316;2023-03-23T10:54:01;4.30;;;1.40;;
75854;SDS011;64502;59.976;30.316;2023-03-23T10:56:39;5.15;;;1.13;;
75854;SDS011;64502;59.976;30.316;2023-03-23T10:59:39;6.45;;;1.20;;
75854;SDS011;64502;59.976;30.316;2023-03-23T11:02:00;3.53;;;1.23;;
75854;SDS011;64502;59.976;30.316;2023-03-23T11:04:28;8.52;;;1.17;;
75854;SDS011;64502;59.976;30.316;2023-03-23T11:07:00;2.88;;;1.17;;
75854;SDS011;64502;59.976;30.316;2023-03-23T11:09:50;5.28;;;1.00;;
75854;SDS011;64502;59.976;30.316;2023-03-23T11:12:19;3.72;;;1.30;;
75854;SDS011;64502;59.976;30.316;2023-03-23T11:14:45;8.35;;;2.25;;
75854;SDS011;64502;59.976;30.316;2023-03-23T11:17:24;3.75;;;1.38;;
75854;SDS011;64502;59.976;30.316;2023-03-23T11:19:51;6.28;;;1.58;;
75854;SDS011;64502;59.976;30.316;2023-03-23T11:25:02;5.07;;;1.83;;
75854;SDS011;64502;59.976;30.316;2023-03-23T11:27:29;6.03;;;1.50;;
75854;SDS011;64502;59.976;30.316;2023-03-23T11:30:08;6.07;;;1.50;;
75854;SDS011;64502;59.976;30.316;2023-03-23T11:32:36;3.70;;;1.30;;
75854;SDS011;64502;59.976;30.316;2023-03-23T11:35:06;2.95;;;1.40;;
75854;SDS011;64502;59.976;30.316;2023-03-23T11:37:43;5.28;;;1.10;;
75854;SDS011;64502;59.976;30.316;2023-03-23T11:40:17;3.75;;;1.20;;
75854;SDS011;64502;59.976;30.316;2023-03-23T11:43:01;4.63;;;1.27;;
75854;SDS011;64502;59.976;30.316;2023-03-23T11:45:35;6.30;;;1.48;;
75854;SDS011;64502;59.976;30.316;2023-03-23T11:50:28;4.75;;;1.38;;
75854;SDS011;64502;59.976;30.316;2023-03-23T11:56:01;4.43;;;1.17;;
75854;SDS011;64502;59.976;30.316;2023-03-23T12:03:46;5.75;;;1.77;;
75854;SDS011;64502;59.976;30.316;2023-03-23T12:06:14;4.15;;;1.38;;
75854;SDS011;64502;59.976;30.316;2023-03-23T12:12:12;5.97;;;1.75;;
75854;SDS011;64502;59.976;30.316;2023-03-23T12:14:47;3.58;;;1.38;;
75854;SDS011;64502;59.976;30.316;2023-03-23T12:20:31;6.70;;;1.33;;
75854;SDS011;64502;59.976;30.316;2023-03-23T12:23:25;9.65;;;1.83;;
75854;SDS011;64502;59.976;30.316;2023-03-23T12:28:37;3.28;;;1.20;;
75854;SDS011;64502;59.976;30.316;2023-03-23T12:31:39;5.85;;;1.20;;
75854;SDS011;64502;59.976;30.316;2023-03-23T12:47:59;6.68;;;1.70;;
75854;SDS011;64502;59.976;30.316;2023-03-23T12:53:11;6.00;;;2.13;;
75854;SDS011;64502;59.976;30.316;2023-03-23T12:56:17;8.50;;;1.88;;
75854;SDS011;64502;59.976;30.316;2023-03-23T12:58:50;4.82;;;2.03;;
75854;SDS011;64502;59.976;30.316;2023-03-23T13:01:25;4.63;;;1.60;;
75854;SDS011;64502;59.976;30.316;2023-03-23T13:06:31;4.40;;;1.40;;
75854;SDS011;64502;59.976;30.316;2023-03-23T13:11:33;5.43;;;1.77;;
75854;SDS011;64502;59.976;30.316;2023-03-23T13:22:33;6.97;;;1.00;;
75854;SDS011;64502;59.976;30.316;2023-03-23T13:26:05;6.43;;;1.30;;
75854;SDS011;64502;59.976;30.316;2023-03-23T13:28:21;5.65;;;2.30;;
75854;SDS011;64502;59.976;30.316;2023-03-23T13:31:01;5.65;;;1.00;;
75854;SDS011;64502;59.976;30.316;2023-03-23T13:33:38;3.50;;;0.95;;
75854;SDS011;64502;59.976;30.316;2023-03-23T13:36:07;4.85;;;1.42;;
75854;SDS011;64502;59.976;30.316;2023-03-23T13:38:35;4.43;;;1.05;;
75854;SDS011;64502;59.976;30.316;2023-03-23T13:41:06;4.93;;;1.25;;
75854;SDS011;64502;59.976;30.316;2023-03-23T13:43:35;3.65;;;1.40;;
75854;SDS011;64502;59.976;30.316;2023-03-23T13:46:22;8.32;;;1.10;;
75854;SDS011;64502;59.976;30.316;2023-03-23T13:49:45;3.17;;;1.10;;
75854;SDS011;64502;59.976;30.316;2023-03-23T14:01:52;6.10;;;1.15;;
75854;SDS011;64502;59.976;30.316;2023-03-23T14:04:20;5.63;;;1.10;;
75854;SDS011;64502;59.976;30.316;2023-03-23T14:06:48;9.27;;;1.20;;
75854;SDS011;64502;59.976;30.316;2023-03-23T14:11:55;3.65;;;1.17;;
75854;SDS011;64502;59.976;30.316;2023-03-23T14:14:25;2.65;;;1.00;;
75854;SDS011;64502;59.976;30.316;2023-03-23T14:16:53;8.02;;;1.15;;
75854;SDS011;64502;59.976;30.316;2023-03-23T14:19:31;3.58;;;1.45;;
75854;SDS011;64502;59.976;30.316;2023-03-23T14:21:58;6.47;;;1.52;;
75854;SDS011;64502;59.976;30.316;2023-03-23T14:24:25;3.55;;;1.23;;
75854;SDS011;64502;59.976;30.316;2023-03-23T14:26:54;4.40;;;1.05;;
75854;SDS011;64502;59.976;30.316;2023-03-23T14:29:33;2.35;;;0.90;;
75854;SDS011;64502;59.976;30.316;2023-03-23T14:31:59;8.05;;;1.58;;
75854;SDS011;64502;59.976;30.316;2023-03-23T14:34:27;7.65;;;1.30;;
75854;SDS011;64502;59.976;30.316;2023-03-23T14:36:54;3.80;;;1.35;;
75854;SDS011;64502;59.976;30.316;2023-03-23T14:39:24;2.55;;;0.93;;
75854;SDS011;64502;59.976;30.316;2023-03-23T14:41:55;7.63;;;1.55;;
75854;SDS011;64502;59.976;30.316;2023-03-23T14:44:28;5.47;;;1.17;;
75854;SDS011;64502;59.976;30.316;2023-03-23T14:46:55;6.28;;;1.50;;
75854;SDS011;64502;59.976;30.316;2023-03-23T14:49:31;3.05;;;0.95;;
75854;SDS011;64502;59.976;30.316;2023-03-23T14:52:03;4.78;;;1.08;;
75854;SDS011;64502;59.976;30.316;2023-03-23T14:54:40;5.68;;;1.13;;
75854;SDS011;64502;59.976;30.316;2023-03-23T14:57:13;4.38;;;1.23;;
75854;SDS011;64502;59.976;30.316;2023-03-23T14:59:57;3.58;;;1.35;;
75854;SDS011;64502;59.976;30.316;2023-03-23T15:04:56;2.95;;;0.90;;
75854;SDS011;64502;59.976;30.316;2023-03-23T15:07:31;6.43;;;1.23;;
75854;SDS011;64502;59.976;30.316;2023-03-23T15:09:59;6.32;;;1.17;;
75854;SDS011;64502;59.976;30.316;2023-03-23T15:12:27;12.85;;;1.10;;
75854;SDS011;64502;59.976;30.316;2023-03-23T15:14:59;8.65;;;1.38;;
75854;SDS011;64502;59.976;30.316;2023-03-23T15:17:28;3.17;;;1.33;;
75854;SDS011;64502;59.976;30.316;2023-03-23T15:19:58;6.25;;;1.38;;
75854;SDS011;64502;59.976;30.316;2023-03-23T15:22:33;6.00;;;1.27;;
75854;SDS011;64502;59.976;30.316;2023-03-23T15:27:39;3.05;;;0.90;;
75854;SDS011;64502;59.976;30.316;2023-03-23T15:30:34;9.30;;;1.50;;
75854;SDS011;64502;59.976;30.316;2023-03-23T15:33:12;6.95;;;1.20;;
75854;SDS011;64502;59.976;30.316;2023-03-23T15:35:39;4.57;;;1.15;;
75854;SDS011;64502;59.976;30.316;2023-03-23T15:38:24;4.38;;;1.50;;
75854;SDS011;64502;59.976;30.316;2023-03-23T15:40:57;5.47;;;1.35;;
75854;SDS011;64502;59.976;30.316;2023-03-23T15:43:33;8.25;;;1.60;;
75854;SDS011;64502;59.976;30.316;2023-03-23T15:46:01;5.55;;;1.25;;
75854;SDS011;64502;59.976;30.316;2023-03-23T15:48:46;7.65;;;1.20;;
75854;SDS011;64502;59.976;30.316;2023-03-23T15:51:24;4.60;;;1.10;;
75854;SDS011;64502;59.976;30.316;2023-03-23T15:53:52;7.25;;;1.73;;
75854;SDS011;64502;59.976;30.316;2023-03-23T15:56:18;3.10;;;1.20;;
75854;SDS011;64502;59.976;30.316;2023-03-23T15:58:45;4.30;;;0.65;;
75854;SDS011;64502;59.976;30.316;2023-03-23T16:01:21;5.68;;;1.05;;
75854;SDS011;64502;59.976;30.316;2023-03-23T16:03:51;4.78;;;1.27;;
75854;SDS011;64502;59.976;30.316;2023-03-23T16:06:20;7.00;;;1.23;;
75854;SDS011;64502;59.976;30.316;2023-03-23T16:08:48;9.20;;;1.50;;
75854;SDS011;64502;59.976;30.316;2023-03-23T16:11:14;5.13;;;1.00;;
75854;SDS011;64502;59.976;30.316;2023-03-23T16:13:41;5.45;;;1.15;;
75854;SDS011;64502;59.976;30.316;2023-03-23T16:16:11;5.53;;;1.30;;
75854;SDS011;64502;59.976;30.316;2023-03-23T16:18:42;4.20;;;1.30;;
75854;SDS011;64502;59.976;30.316;2023-03-23T16:21:08;4.97;;;1.50;;
75854;SDS011;64502;59.976;30.316;2023-03-23T16:23:34;5.20;;;1.17;;
75854;SDS011;64502;59.976;30.316;2023-03-23T16:26:00;3.97;;;0.95;;
75854;SDS011;64502;59.976;30.316;2023-03-23T16:28:25;6.70;;;1.83;;
75854;SDS011;64502;59.976;30.316;2023-03-23T16:30:51;3.88;;;1.45;;
75854;SDS011;64502;59.976;30.316;2023-03-23T16:33:17;6.47;;;1.45;;
75854;SDS011;64502;59.976;30.316;2023-03-23T16:35:42;4.15;;;1.15;;
75854;SDS011;64502;59.976;30.316;2023-03-23T16:38:14;7.28;;;1.63;;
75854;SDS011;64502;59.976;30.316;2023-03-23T16:40:42;2.90;;;1.10;;
75854;SDS011;64502;59.976;30.316;2023-03-23T16:43:09;5.28;;;1.30;;
75854;SDS011;64502;59.976;30.316;2023-03-23T16:45:36;4.20;;;1.58;;
75854;SDS011;64502;59.976;30.316;2023-03-23T16:48:03;5.00;;;1.75;;